createdAt,value
2023-05-05T00:00:23.713Z,6.25
2023-05-05T00:00:55.103Z,4.60
2023-05-05T00:01:26.502Z,7.72
2023-05-05T00:01:57.934Z,6.00
2023-05-05T00:02:29.350Z,6.88
2023-05-05T00:03:00.917Z,7.78
2023-05-05T00:03:33.208Z,5.38
2023-05-05T00:04:04.742Z,5.22
2023-05-05T00:04:36.185Z,7.07
2023-05-05T00:05:07.695Z,6.67
2023-05-05T00:05:39.041Z,5.00
2023-05-05T00:06:10.393Z,6.50
2023-05-05T00:06:41.754Z,5.25
2023-05-05T00:07:13.168Z,5.97
2023-05-05T00:07:44.512Z,7.10
2023-05-05T00:08:16.097Z,7.22
2023-05-05T00:08:47.506Z,5.18
2023-05-05T00:09:18.872Z,4.82
2023-05-05T00:09:50.260Z,6.78
2023-05-05T00:10:21.732Z,6.30
2023-05-05T00:10:53.463Z,5.63
2023-05-05T00:11:24.811Z,6.30
2023-05-05T00:11:56.265Z,5.80
2023-05-05T00:12:27.647Z,6.60
2023-05-05T00:12:59.103Z,5.10
2023-05-05T00:13:30.494Z,4.38
2023-05-05T00:14:01.810Z,4.80
2023-05-05T00:14:33.212Z,4.75
2023-05-05T00:15:04.760Z,5.28
2023-05-05T00:15:36.218Z,3.88
2023-05-05T00:16:07.923Z,6.50
2023-05-05T00:16:39.315Z,5.28
2023-05-05T00:17:10.781Z,5.20
2023-05-05T00:17:42.286Z,4.30
2023-05-05T00:18:14.473Z,5.65
2023-05-05T00:18:45.901Z,5.05
2023-05-05T00:19:17.261Z,6.20
2023-05-05T00:19:48.810Z,4.55
2023-05-05T00:20:20.179Z,6.60
2023-05-05T00:20:51.576Z,6.10
2023-05-05T00:21:22.994Z,6.07
2023-05-05T00:21:54.362Z,4.82
2023-05-05T00:22:25.732Z,6.38
2023-05-05T00:22:57.155Z,5.47
2023-05-05T00:23:28.595Z,5.20
2023-05-05T00:23:59.993Z,4.57
2023-05-05T00:24:31.356Z,7.03
2023-05-05T00:25:02.759Z,6.28
2023-05-05T00:25:34.149Z,5.45
2023-05-05T00:26:05.534Z,4.35
2023-05-05T00:26:36.862Z,3.97
2023-05-05T00:27:08.250Z,5.68
2023-05-05T00:27:40.982Z,5.05
2023-05-05T00:28:12.445Z,3.85
2023-05-05T00:28:43.800Z,5.80
2023-05-05T00:29:15.169Z,4.57
2023-05-05T00:29:46.538Z,5.28
2023-05-05T00:30:18.020Z,7.03
2023-05-05T00:30:49.417Z,3.97
2023-05-05T00:31:21.252Z,5.57
2023-05-05T00:31:52.879Z,4.97
2023-05-05T00:32:24.243Z,5.85
2023-05-05T00:32:55.695Z,7.30
2023-05-05T00:33:27.241Z,5.80
2023-05-05T00:33:58.647Z,5.05
2023-05-05T00:34:30.089Z,4.87
2023-05-05T00:35:01.513Z,4.45
2023-05-05T00:35:32.965Z,4.28
2023-05-05T00:36:04.477Z,5.82
2023-05-05T00:36:35.888Z,4.53
2023-05-05T00:37:07.317Z,4.43
2023-05-05T00:37:38.725Z,5.03
2023-05-05T00:38:10.097Z,5.82
2023-05-05T00:38:41.445Z,3.97
2023-05-05T00:39:12.816Z,4.18
2023-05-05T00:39:44.439Z,5.75
2023-05-05T00:40:16.037Z,7.32
2023-05-05T00:40:47.386Z,5.70
2023-05-05T00:41:18.766Z,5.80
2023-05-05T00:41:50.156Z,5.07
2023-05-05T00:42:21.551Z,4.47
2023-05-05T00:42:52.935Z,6.05
2023-05-05T00:43:24.343Z,4.85
2023-05-05T00:43:55.726Z,6.07
2023-05-05T00:44:35.645Z,6.20
2023-05-05T00:45:07.214Z,5.88
2023-05-05T00:45:38.869Z,4.70
2023-05-05T00:46:17.613Z,6.20
2023-05-05T00:46:49.160Z,4.25
2023-05-05T00:47:20.640Z,4.40
2023-05-05T00:47:56.943Z,4.43
2023-05-05T00:48:29.532Z,5.70
2023-05-05T00:49:01.014Z,6.30
2023-05-05T00:49:33.294Z,5.37
2023-05-05T00:50:08.637Z,6.93
2023-05-05T00:50:43.119Z,4.90
2023-05-05T00:51:15.696Z,5.03
2023-05-05T00:51:47.087Z,4.43
2023-05-05T00:52:18.455Z,5.18
2023-05-05T00:52:50.816Z,5.53
2023-05-05T00:53:22.557Z,4.68
2023-05-05T00:53:54.409Z,3.72
2023-05-05T00:54:25.938Z,4.93
2023-05-05T00:54:57.638Z,7.10
2023-05-05T00:55:29.458Z,8.77
2023-05-05T00:56:00.879Z,5.72
2023-05-05T00:56:32.459Z,5.53
2023-05-05T00:57:04.057Z,6.25
2023-05-05T00:57:35.636Z,6.05
2023-05-05T00:58:07.544Z,6.97
2023-05-05T00:58:41.456Z,6.47
2023-05-05T00:59:12.870Z,4.53
2023-05-05T00:59:44.598Z,7.15
2023-05-05T01:00:16.052Z,4.83
2023-05-05T01:00:47.478Z,3.90
2023-05-05T01:01:18.852Z,5.43
2023-05-05T01:01:50.483Z,5.15
2023-05-05T01:02:21.894Z,6.43
2023-05-05T01:02:53.320Z,6.00
2023-05-05T01:03:24.985Z,7.57
2023-05-05T01:03:56.691Z,5.25
2023-05-05T01:04:28.182Z,4.90
2023-05-05T01:04:59.549Z,5.50
2023-05-05T01:05:52.204Z,7.30
2023-05-05T01:06:23.573Z,4.97
2023-05-05T01:07:27.526Z,5.65
2023-05-05T01:07:58.890Z,5.72
2023-05-05T01:08:46.959Z,6.07
2023-05-05T01:09:24.527Z,4.75
2023-05-05T01:10:18.740Z,5.75
2023-05-05T01:10:57.355Z,5.78
2023-05-05T01:11:28.687Z,5.53
2023-05-05T01:12:12.928Z,5.80
2023-05-05T01:12:44.339Z,5.38
2023-05-05T01:13:15.692Z,5.00
2023-05-05T01:13:47.039Z,5.30
2023-05-05T01:14:21.195Z,4.10
2023-05-05T01:15:09.407Z,5.82
2023-05-05T01:15:46.141Z,5.28
2023-05-05T01:16:18.842Z,5.45
2023-05-05T01:16:50.247Z,5.30
2023-05-05T01:17:28.883Z,6.03
2023-05-05T01:18:00.288Z,4.93
2023-05-05T01:18:46.754Z,5.77
2023-05-05T01:19:37.113Z,5.90
2023-05-05T01:20:11.290Z,5.70
2023-05-05T01:21:01.447Z,5.95
2023-05-05T01:21:38.497Z,5.95
2023-05-05T01:22:13.585Z,4.85
2023-05-05T01:22:51.295Z,5.53
2023-05-05T01:23:28.580Z,6.30
2023-05-05T01:24:18.637Z,6.22
2023-05-05T01:24:55.786Z,11.52
2023-05-05T01:25:30.344Z,5.50
2023-05-05T01:26:21.973Z,6.93
2023-05-05T01:26:53.345Z,6.82
2023-05-05T01:27:50.730Z,5.55
2023-05-05T01:28:38.145Z,7.15
2023-05-05T01:29:21.511Z,6.50
2023-05-05T01:30:02.222Z,5.10
2023-05-05T01:30:33.576Z,7.82
2023-05-05T01:31:23.663Z,6.65
2023-05-05T01:31:57.230Z,6.07
2023-05-05T01:32:31.671Z,4.80
2023-05-05T01:33:05.499Z,7.28
2023-05-05T01:33:41.958Z,6.93
2023-05-05T01:34:14.395Z,5.27
2023-05-05T01:34:52.020Z,4.80
2023-05-05T01:35:32.605Z,6.65
2023-05-05T01:36:05.779Z,5.60
2023-05-05T01:36:38.792Z,6.50
2023-05-05T01:37:12.094Z,4.90
2023-05-05T01:37:46.310Z,6.07
2023-05-05T01:38:21.286Z,5.18
2023-05-05T01:38:55.760Z,6.53
2023-05-05T01:39:29.787Z,6.93
2023-05-05T01:40:03.430Z,5.00
2023-05-05T01:40:39.011Z,6.60
2023-05-05T01:41:17.200Z,4.82
2023-05-05T01:41:51.098Z,5.57
2023-05-05T01:42:23.792Z,4.80
2023-05-05T01:42:56.262Z,5.32
2023-05-05T01:43:29.499Z,5.28
2023-05-05T01:44:02.652Z,6.10
2023-05-05T01:44:36.308Z,5.30
2023-05-05T01:45:08.978Z,6.13
2023-05-05T01:45:42.219Z,5.47
2023-05-05T01:46:15.099Z,5.75
2023-05-05T01:46:47.892Z,5.30
2023-05-05T01:47:20.886Z,5.75
2023-05-05T01:47:52.576Z,6.07
2023-05-05T01:48:24.532Z,4.88
2023-05-05T01:48:56.708Z,5.07
2023-05-05T01:49:28.143Z,7.50
2023-05-05T01:49:59.929Z,5.78
2023-05-05T01:50:31.839Z,5.30
2023-05-05T01:51:03.660Z,5.82
2023-05-05T01:51:35.408Z,8.13
2023-05-05T01:52:07.326Z,7.93
2023-05-05T01:52:39.989Z,6.13
2023-05-05T01:53:11.580Z,5.07
2023-05-05T01:53:43.261Z,5.10
2023-05-05T01:54:15.380Z,7.45
2023-05-05T01:54:47.842Z,5.40
2023-05-05T01:55:20.243Z,5.90
2023-05-05T01:55:52.181Z,7.23
2023-05-05T01:56:23.839Z,7.53
2023-05-05T01:56:56.849Z,5.28
2023-05-05T01:57:29.535Z,5.15
2023-05-05T01:58:01.179Z,5.80
2023-05-05T01:58:32.791Z,4.82
2023-05-05T01:59:04.818Z,6.07
2023-05-05T01:59:36.751Z,5.53
2023-05-05T02:00:09.631Z,4.30
2023-05-05T02:00:41.538Z,7.38
2023-05-05T02:01:13.452Z,4.30
2023-05-05T02:01:45.801Z,5.63
2023-05-05T02:02:18.803Z,5.80
2023-05-05T02:02:50.554Z,4.93
2023-05-05T02:03:22.845Z,7.03
2023-05-05T02:03:54.567Z,6.53
2023-05-05T02:04:26.765Z,6.35
2023-05-05T02:04:58.621Z,6.25
2023-05-05T02:05:30.593Z,5.47
2023-05-05T02:06:02.552Z,4.30
2023-05-05T02:06:35.336Z,5.60
2023-05-05T02:07:07.840Z,6.07
2023-05-05T02:07:39.368Z,5.68
2023-05-05T02:08:11.501Z,4.85
2023-05-05T02:08:43.635Z,7.18
2023-05-05T02:09:15.531Z,4.28
2023-05-05T02:09:47.938Z,6.03
2023-05-05T02:10:19.303Z,6.65
2023-05-05T02:10:51.102Z,4.45
2023-05-05T02:11:23.314Z,5.47
2023-05-05T02:11:55.593Z,4.63
2023-05-05T02:12:28.173Z,5.80
2023-05-05T02:13:00.734Z,4.57
2023-05-05T02:13:32.482Z,5.33
2023-05-05T02:14:05.308Z,4.65
2023-05-05T02:14:36.896Z,6.35
2023-05-05T02:15:09.230Z,5.05
2023-05-05T02:15:41.722Z,6.18
2023-05-05T02:16:13.748Z,5.22
2023-05-05T02:16:45.551Z,6.03
2023-05-05T02:17:17.157Z,8.32
2023-05-05T02:17:50.482Z,7.90
2023-05-05T02:18:22.460Z,7.82
2023-05-05T02:18:54.606Z,6.38
2023-05-05T02:19:30.170Z,6.60
2023-05-05T02:20:01.992Z,6.85
2023-05-05T02:20:33.402Z,4.90
2023-05-05T02:21:05.023Z,6.22
2023-05-05T02:21:36.410Z,5.20
2023-05-05T02:22:07.889Z,4.65
2023-05-05T02:22:40.099Z,4.93
2023-05-05T02:23:11.477Z,5.93
2023-05-05T02:23:42.919Z,6.50
2023-05-05T02:24:14.311Z,6.13
2023-05-05T02:24:45.704Z,5.93
2023-05-05T02:25:17.136Z,5.70
2023-05-05T02:25:55.088Z,6.97
2023-05-05T02:26:28.172Z,6.13
2023-05-05T02:26:59.784Z,5.68
2023-05-05T02:27:33.760Z,6.32
2023-05-05T02:28:07.458Z,4.75
2023-05-05T02:28:38.794Z,6.88
2023-05-05T02:29:10.147Z,6.32
2023-05-05T02:29:52.826Z,6.28
2023-05-05T02:30:24.652Z,5.50
2023-05-05T02:30:57.593Z,6.50
2023-05-05T02:31:29.745Z,8.13
2023-05-05T02:32:06.501Z,6.68
2023-05-05T02:32:40.924Z,5.45
2023-05-05T02:33:14.942Z,5.78
2023-05-05T02:33:47.334Z,7.65
2023-05-05T02:34:22.343Z,4.80
2023-05-05T02:34:54.293Z,6.70
2023-05-05T02:35:30.403Z,7.97
2023-05-05T02:36:11.488Z,5.85
2023-05-05T02:36:44.035Z,5.33
2023-05-05T02:37:18.035Z,5.13
2023-05-05T02:37:57.846Z,6.22
2023-05-05T02:38:29.880Z,5.65
2023-05-05T02:39:02.580Z,6.00
2023-05-05T02:39:48.596Z,5.57
2023-05-05T02:40:22.218Z,6.68
2023-05-05T02:40:55.188Z,5.93
2023-05-05T02:41:27.787Z,5.68
2023-05-05T02:42:00.931Z,6.85
2023-05-05T02:42:34.876Z,6.60
2023-05-05T02:43:11.159Z,7.57
2023-05-05T02:43:43.185Z,6.78
2023-05-05T02:44:15.498Z,5.43
2023-05-05T02:44:47.554Z,7.68
2023-05-05T02:45:20.261Z,7.53
2023-05-05T02:45:51.724Z,7.22
2023-05-05T02:46:23.132Z,5.70
2023-05-05T02:46:54.754Z,6.97
2023-05-05T02:47:35.699Z,4.57
2023-05-05T02:48:07.164Z,6.47
2023-05-05T02:48:38.541Z,6.15
2023-05-05T02:49:09.939Z,7.40
2023-05-05T02:49:42.514Z,6.77
2023-05-05T02:50:14.415Z,5.32
2023-05-05T02:50:45.787Z,8.30
2023-05-05T02:51:17.224Z,5.50
2023-05-05T02:51:48.824Z,7.30
2023-05-05T02:52:20.201Z,7.72
2023-05-05T02:52:51.568Z,7.38
2023-05-05T02:53:24.642Z,5.90
2023-05-05T02:53:56.024Z,5.88
2023-05-05T02:54:27.732Z,10.20
2023-05-05T02:54:59.450Z,5.78
2023-05-05T02:55:39.153Z,5.60
2023-05-05T02:56:16.290Z,5.30
2023-05-05T02:56:48.822Z,5.72
2023-05-05T02:57:20.773Z,6.85
2023-05-05T02:58:05.927Z,9.55
2023-05-05T02:58:42.153Z,8.57
2023-05-05T02:59:16.689Z,5.38
2023-05-05T02:59:55.511Z,5.15
2023-05-05T03:00:26.891Z,4.90
2023-05-05T03:01:04.420Z,7.43
2023-05-05T03:01:38.634Z,5.22
2023-05-05T03:02:27.218Z,8.40
2023-05-05T03:03:04.453Z,5.72
2023-05-05T03:03:40.342Z,5.03
2023-05-05T03:04:22.931Z,7.47
2023-05-05T03:05:17.353Z,8.18
2023-05-05T03:05:55.639Z,7.82
2023-05-05T03:06:28.353Z,6.82
2023-05-05T03:07:04.625Z,5.82
2023-05-05T03:07:54.724Z,8.25
2023-05-05T03:08:43.852Z,9.00
2023-05-05T03:09:36.812Z,7.18
2023-05-05T03:10:10.053Z,10.55
2023-05-05T03:10:52.832Z,9.60
2023-05-05T03:11:27.636Z,8.38
2023-05-05T03:12:03.798Z,11.75
2023-05-05T03:12:39.907Z,7.75
2023-05-05T03:13:11.732Z,8.20
2023-05-05T03:13:44.035Z,10.55
2023-05-05T03:14:17.499Z,7.72
2023-05-05T03:14:51.355Z,9.57
2023-05-05T03:15:25.042Z,10.07
2023-05-05T03:15:56.746Z,7.90
2023-05-05T03:16:29.234Z,8.52
2023-05-05T03:17:01.247Z,8.25
2023-05-05T03:17:32.747Z,9.60
2023-05-05T03:18:04.460Z,8.35
2023-05-05T03:18:36.086Z,8.82
2023-05-05T03:19:08.803Z,12.27
2023-05-05T03:19:44.095Z,11.35
2023-05-05T03:20:15.596Z,11.63
2023-05-05T03:20:47.387Z,11.30
2023-05-05T03:21:18.923Z,10.77
2023-05-05T03:21:50.426Z,12.90
2023-05-05T03:22:21.854Z,9.18
2023-05-05T03:22:53.226Z,9.50
2023-05-05T03:23:24.678Z,7.97
2023-05-05T03:23:56.959Z,12.95
2023-05-05T03:24:28.370Z,10.30
2023-05-05T03:24:59.751Z,9.43
2023-05-05T03:25:43.463Z,8.82
2023-05-05T03:26:16.829Z,10.98
2023-05-05T03:26:49.122Z,11.65
2023-05-05T03:27:20.522Z,10.18
2023-05-05T03:27:51.849Z,12.52
2023-05-05T03:28:23.182Z,9.63
2023-05-05T03:28:54.538Z,10.25
2023-05-05T03:29:25.999Z,7.63
2023-05-05T03:29:57.395Z,6.75
2023-05-05T03:30:28.829Z,8.50
2023-05-05T03:31:00.340Z,7.18
2023-05-05T03:31:31.735Z,10.38
2023-05-05T03:32:03.242Z,10.07
2023-05-05T03:32:34.744Z,10.55
2023-05-05T03:33:06.174Z,9.48
2023-05-05T03:33:37.608Z,9.40
2023-05-05T03:34:08.968Z,9.50
2023-05-05T03:34:40.314Z,9.18
2023-05-05T03:35:11.661Z,13.15
2023-05-05T03:35:43.033Z,10.43
2023-05-05T03:36:14.440Z,7.60
2023-05-05T03:36:45.847Z,6.13
2023-05-05T03:37:17.266Z,8.65
2023-05-05T03:37:48.613Z,8.75
2023-05-05T03:38:19.965Z,6.60
2023-05-05T03:38:51.333Z,7.57
2023-05-05T03:39:22.724Z,6.80
2023-05-05T03:39:54.096Z,5.78
2023-05-05T03:40:36.393Z,5.25
2023-05-05T03:41:14.832Z,5.30
2023-05-05T03:41:46.191Z,5.13
2023-05-05T03:42:17.602Z,5.03
2023-05-05T03:42:48.956Z,4.50
2023-05-05T03:43:20.317Z,5.18
2023-05-05T03:43:51.682Z,4.75
2023-05-05T03:44:23.028Z,6.00
2023-05-05T03:44:54.371Z,9.13
2023-05-05T03:45:25.876Z,6.93
2023-05-05T03:45:57.323Z,8.10
2023-05-05T03:46:28.753Z,6.72
2023-05-05T03:47:00.120Z,7.72
2023-05-05T03:47:31.509Z,7.07
2023-05-05T03:48:02.947Z,9.27
2023-05-05T03:48:34.297Z,6.68
2023-05-05T03:49:05.682Z,5.53
2023-05-05T03:49:37.050Z,6.35
2023-05-05T03:50:08.845Z,5.07
2023-05-05T03:50:40.367Z,4.50
2023-05-05T03:51:12.514Z,5.28
2023-05-05T03:51:43.894Z,5.88
2023-05-05T03:52:15.330Z,6.07
2023-05-05T03:52:46.736Z,8.20
2023-05-05T03:53:18.075Z,4.80
2023-05-05T03:53:49.470Z,6.60
2023-05-05T03:54:20.827Z,5.20
2023-05-05T03:54:52.227Z,6.20
2023-05-05T03:55:23.578Z,5.22
2023-05-05T03:55:54.943Z,6.57
2023-05-05T03:56:26.275Z,4.78
2023-05-05T03:56:57.637Z,4.97
2023-05-05T03:57:28.980Z,3.58
2023-05-05T03:58:00.408Z,7.60
2023-05-05T03:58:31.773Z,6.30
2023-05-05T03:59:03.187Z,5.47
2023-05-05T03:59:34.566Z,6.65
2023-05-05T04:00:06.508Z,7.13
2023-05-05T04:00:38.060Z,6.03
2023-05-05T04:01:09.417Z,6.70
2023-05-05T04:01:40.795Z,8.82
2023-05-05T04:02:12.197Z,5.93
2023-05-05T04:02:43.752Z,5.60
2023-05-05T04:03:15.560Z,8.32
2023-05-05T04:03:47.125Z,6.63
2023-05-05T04:04:18.625Z,5.05
2023-05-05T04:04:49.996Z,5.32
2023-05-05T04:05:21.391Z,7.80
2023-05-05T04:05:52.798Z,7.65
2023-05-05T04:06:24.182Z,5.40
2023-05-05T04:06:55.531Z,4.82
2023-05-05T04:07:26.862Z,4.30
2023-05-05T04:07:58.252Z,3.83
2023-05-05T04:08:29.651Z,5.95
2023-05-05T04:09:01.052Z,5.05
2023-05-05T04:09:32.435Z,3.67
2023-05-05T04:10:03.893Z,5.18
2023-05-05T04:10:35.286Z,4.35
2023-05-05T04:11:06.636Z,3.92
2023-05-05T04:11:37.966Z,4.40
2023-05-05T04:12:09.310Z,4.68
2023-05-05T04:12:40.746Z,2.28
2023-05-05T04:13:12.200Z,4.00
2023-05-05T04:13:43.630Z,2.70
2023-05-05T04:14:14.965Z,3.33
2023-05-05T04:14:46.344Z,3.63
2023-05-05T04:15:17.728Z,3.97
2023-05-05T04:15:49.145Z,4.07
2023-05-05T04:16:20.655Z,3.13
2023-05-05T04:16:52.017Z,5.22
2023-05-05T04:17:23.377Z,4.20
2023-05-05T04:17:54.778Z,2.80
2023-05-05T04:18:26.121Z,2.05
2023-05-05T04:18:57.507Z,2.60
2023-05-05T04:19:28.904Z,3.67
2023-05-05T04:20:00.365Z,4.93
2023-05-05T04:20:31.738Z,2.30
2023-05-05T04:21:03.206Z,4.65
2023-05-05T04:21:35.202Z,4.28
2023-05-05T04:22:06.593Z,4.30
2023-05-05T04:22:37.994Z,4.30
2023-05-05T04:23:09.382Z,4.25
2023-05-05T04:23:40.729Z,3.08
2023-05-05T04:24:12.523Z,4.38
2023-05-05T04:24:43.895Z,4.03
2023-05-05T04:25:15.295Z,4.30
2023-05-05T04:25:46.625Z,4.60
2023-05-05T04:26:18.049Z,4.45
2023-05-05T04:26:49.407Z,4.97
2023-05-05T04:27:20.795Z,3.27
2023-05-05T04:27:52.207Z,3.17
2023-05-05T04:28:23.667Z,3.92
2023-05-05T04:28:55.339Z,3.33
2023-05-05T04:29:26.716Z,5.22
2023-05-05T04:29:58.322Z,5.00
2023-05-05T04:30:29.731Z,4.28
2023-05-05T04:31:01.234Z,5.32
2023-05-05T04:31:32.731Z,5.18
2023-05-05T04:32:04.258Z,5.30
2023-05-05T04:32:35.668Z,3.75
2023-05-05T04:33:07.210Z,4.60
2023-05-05T04:33:38.570Z,3.75
2023-05-05T04:34:10.005Z,3.70
2023-05-05T04:34:41.394Z,5.15
2023-05-05T04:35:12.766Z,3.35
2023-05-05T04:35:44.177Z,4.10
2023-05-05T04:36:15.619Z,3.90
2023-05-05T04:36:47.013Z,3.63
2023-05-05T04:37:18.369Z,3.33
2023-05-05T04:37:49.697Z,5.05
2023-05-05T04:38:21.157Z,2.20
2023-05-05T04:38:52.594Z,1.88
2023-05-05T04:39:24.083Z,4.03
2023-05-05T04:39:55.487Z,4.35
2023-05-05T04:40:26.848Z,2.65
2023-05-05T04:40:58.274Z,2.22
2023-05-05T04:41:30.186Z,2.97
2023-05-05T04:42:01.598Z,2.65
2023-05-05T04:42:32.993Z,2.83
2023-05-05T04:43:04.343Z,2.20
2023-05-05T04:43:35.722Z,4.32
2023-05-05T04:44:07.080Z,3.92
2023-05-05T04:44:38.454Z,2.78
2023-05-05T04:45:10.010Z,3.92
2023-05-05T04:45:41.388Z,3.50
2023-05-05T04:46:12.741Z,4.05
2023-05-05T04:46:44.175Z,3.30
2023-05-05T04:47:15.537Z,4.63
2023-05-05T04:47:46.908Z,5.40
2023-05-05T04:48:18.283Z,3.70
2023-05-05T04:48:49.620Z,7.10
2023-05-05T04:49:21.006Z,3.33
2023-05-05T04:49:54.114Z,5.93
2023-05-05T04:50:25.478Z,3.08
2023-05-05T04:50:56.838Z,3.80
2023-05-05T04:51:28.250Z,5.82
2023-05-05T04:51:59.619Z,3.63
2023-05-05T04:52:31.058Z,5.20
2023-05-05T04:53:02.399Z,4.23
2023-05-05T04:53:33.783Z,3.45
2023-05-05T04:54:05.189Z,5.45
2023-05-05T04:54:36.667Z,4.65
2023-05-05T04:55:08.978Z,4.05
2023-05-05T04:55:40.394Z,4.30
2023-05-05T04:56:11.764Z,3.07
2023-05-05T04:56:43.126Z,4.70
2023-05-05T04:57:14.483Z,2.80
2023-05-05T04:57:45.816Z,3.22
2023-05-05T04:58:17.219Z,2.72
2023-05-05T04:58:49.618Z,4.55
2023-05-05T04:59:21.184Z,5.13
2023-05-05T04:59:52.771Z,2.38
2023-05-05T05:00:24.125Z,4.88
2023-05-05T05:00:55.549Z,4.25
2023-05-05T05:01:27.013Z,2.28
2023-05-05T05:01:58.460Z,3.70
2023-05-05T05:02:29.961Z,3.03
2023-05-05T05:03:01.477Z,2.25
2023-05-05T05:03:33.000Z,2.13
2023-05-05T05:04:04.607Z,4.78
2023-05-05T05:04:36.165Z,4.43
2023-05-05T05:05:07.718Z,3.50
2023-05-05T05:05:39.079Z,4.53
2023-05-05T05:06:10.437Z,2.97
2023-05-05T05:06:41.862Z,4.68
2023-05-05T05:07:13.285Z,5.50
2023-05-05T05:07:44.677Z,2.78
2023-05-05T05:08:16.477Z,4.78
2023-05-05T05:08:47.838Z,6.22
2023-05-05T05:09:19.219Z,1.90
2023-05-05T05:09:50.581Z,3.60
2023-05-05T05:10:21.926Z,3.70
2023-05-05T05:10:53.286Z,2.75
2023-05-05T05:11:24.666Z,2.65
2023-05-05T05:11:59.603Z,3.70
2023-05-05T05:12:31.014Z,4.13
2023-05-05T05:13:02.479Z,1.95
2023-05-05T05:13:33.898Z,3.60
2023-05-05T05:14:05.287Z,2.73
2023-05-05T05:14:39.833Z,2.38
2023-05-05T05:15:12.880Z,2.80
2023-05-05T05:15:45.049Z,1.58
2023-05-05T05:16:16.539Z,1.75
2023-05-05T05:16:47.947Z,2.95
2023-05-05T05:17:19.804Z,1.73
2023-05-05T05:17:51.183Z,0.85
2023-05-05T05:18:22.620Z,2.38
2023-05-05T05:18:54.208Z,1.83
2023-05-05T05:19:25.926Z,1.10
2023-05-05T05:19:57.278Z,1.83
2023-05-05T05:20:29.706Z,2.50
2023-05-05T05:21:01.041Z,3.60
2023-05-05T05:21:32.406Z,2.75
2023-05-05T05:22:03.842Z,3.97
2023-05-05T05:22:35.221Z,2.15
2023-05-05T05:23:06.567Z,3.50
2023-05-05T05:23:37.980Z,5.70
2023-05-05T05:24:11.347Z,5.40
2023-05-05T05:24:42.687Z,7.72
2023-05-05T05:25:14.128Z,5.93
2023-05-05T05:25:45.545Z,6.38
2023-05-05T05:26:16.983Z,4.03
2023-05-05T05:26:48.384Z,7.70
2023-05-05T05:27:22.919Z,5.47
2023-05-05T05:28:06.176Z,5.15
2023-05-05T05:28:40.614Z,3.03
2023-05-05T05:29:13.183Z,3.05
2023-05-05T05:29:44.638Z,2.20
2023-05-05T05:30:16.150Z,3.92
2023-05-05T05:30:47.532Z,3.55
2023-05-05T05:31:18.894Z,3.40
2023-05-05T05:31:50.305Z,3.97
2023-05-05T05:32:21.770Z,3.65
2023-05-05T05:32:53.193Z,0.90
2023-05-05T05:33:24.579Z,1.05
2023-05-05T05:33:55.893Z,2.58
2023-05-05T05:34:27.304Z,2.35
2023-05-05T05:34:58.644Z,1.52
2023-05-05T05:35:30.050Z,1.90
2023-05-05T05:36:01.417Z,1.80
2023-05-05T05:36:32.753Z,1.02
2023-05-05T05:37:04.109Z,0.97
2023-05-05T05:37:35.488Z,0.77
2023-05-05T05:38:06.868Z,1.05
2023-05-05T05:38:38.231Z,2.30
2023-05-05T05:39:09.598Z,2.88
2023-05-05T05:39:43.192Z,2.08
2023-05-05T05:40:16.625Z,0.93
2023-05-05T05:40:48.037Z,1.15
2023-05-05T05:41:19.473Z,1.02
2023-05-05T05:41:50.885Z,2.30
2023-05-05T05:42:22.440Z,1.50
2023-05-05T05:42:53.831Z,1.48
2023-05-05T05:43:25.194Z,0.75
2023-05-05T05:43:56.540Z,1.98
2023-05-05T05:44:27.892Z,1.33
2023-05-05T05:44:59.398Z,0.95
2023-05-05T05:45:31.050Z,1.75
2023-05-05T05:46:02.457Z,2.67
2023-05-05T05:46:33.934Z,0.70
2023-05-05T05:47:05.526Z,1.42
2023-05-05T05:47:37.020Z,1.50
2023-05-05T05:48:08.509Z,0.82
2023-05-05T05:48:39.944Z,1.38
2023-05-05T05:49:11.304Z,0.90
2023-05-05T05:49:42.651Z,0.85
2023-05-05T05:50:14.059Z,1.80
2023-05-05T05:50:45.480Z,3.25
2023-05-05T05:51:16.832Z,1.35
2023-05-05T05:51:48.203Z,1.48
2023-05-05T05:52:19.554Z,1.20
2023-05-05T05:52:50.905Z,2.10
2023-05-05T05:53:22.484Z,2.05
2023-05-05T05:53:53.829Z,1.25
2023-05-05T05:54:25.227Z,1.17
2023-05-05T05:54:56.682Z,3.43
2023-05-05T05:55:28.038Z,2.90
2023-05-05T05:55:59.391Z,1.95
2023-05-05T05:56:30.802Z,2.40
2023-05-05T05:57:02.169Z,2.20
2023-05-05T05:57:33.543Z,1.95
2023-05-05T05:58:04.917Z,1.20
2023-05-05T05:58:36.295Z,1.20
2023-05-05T05:59:07.701Z,1.38
2023-05-05T05:59:39.067Z,0.93
2023-05-05T06:00:10.816Z,2.58
2023-05-05T06:00:42.251Z,1.88
2023-05-05T06:01:13.682Z,1.25
2023-05-05T06:01:45.079Z,1.45
2023-05-05T06:02:16.492Z,2.42
2023-05-05T06:02:47.954Z,0.73
2023-05-05T06:03:19.533Z,1.27
2023-05-05T06:03:51.103Z,1.55
2023-05-05T06:04:22.607Z,2.60
2023-05-05T06:04:54.047Z,1.00
2023-05-05T06:05:25.434Z,3.20
2023-05-05T06:05:56.852Z,1.38
2023-05-05T06:06:28.224Z,0.90
2023-05-05T06:06:59.570Z,1.08
2023-05-05T06:07:30.980Z,1.10
2023-05-05T06:08:02.371Z,1.83
2023-05-05T06:08:33.747Z,1.10
2023-05-05T06:09:05.131Z,0.80
2023-05-05T06:09:36.490Z,1.63
2023-05-05T06:10:25.071Z,1.35
2023-05-05T06:10:58.489Z,1.30
2023-05-05T06:11:29.852Z,1.35
2023-05-05T06:12:01.259Z,1.02
2023-05-05T06:12:32.622Z,2.30
2023-05-05T06:13:04.037Z,1.83
2023-05-05T06:13:35.445Z,1.90
2023-05-05T06:14:06.842Z,1.52
2023-05-05T06:14:38.179Z,1.52
2023-05-05T06:15:09.691Z,1.05
2023-05-05T06:15:41.054Z,1.27
2023-05-05T06:16:12.580Z,1.42
2023-05-05T06:16:44.011Z,1.13
2023-05-05T06:17:15.385Z,2.60
2023-05-05T06:17:46.758Z,1.05
2023-05-05T06:18:18.265Z,2.35
2023-05-05T06:18:49.694Z,3.57
2023-05-05T06:19:21.260Z,1.85
2023-05-05T06:19:54.062Z,1.08
2023-05-05T06:20:25.934Z,1.05
2023-05-05T06:20:57.301Z,1.45
2023-05-05T06:21:28.677Z,1.13
2023-05-05T06:22:00.060Z,1.02
2023-05-05T06:22:31.436Z,2.95
2023-05-05T06:23:02.858Z,2.03
2023-05-05T06:23:34.282Z,1.33
2023-05-05T06:24:05.713Z,1.42
2023-05-05T06:24:37.155Z,1.60
2023-05-05T06:25:08.785Z,1.95
2023-05-05T06:25:40.169Z,1.38
2023-05-05T06:26:11.627Z,4.32
2023-05-05T06:26:42.993Z,2.47
2023-05-05T06:27:14.400Z,1.27
2023-05-05T06:27:45.772Z,2.13
2023-05-05T06:28:17.158Z,2.30
2023-05-05T06:28:48.523Z,1.98
2023-05-05T06:29:19.854Z,1.17
2023-05-05T06:29:51.456Z,0.82
2023-05-05T06:30:22.816Z,1.33
2023-05-05T06:30:56.156Z,1.95
2023-05-05T06:31:27.546Z,2.60
2023-05-05T06:31:58.962Z,2.08
2023-05-05T06:32:30.414Z,1.67
2023-05-05T06:33:01.835Z,1.67
2023-05-05T06:33:33.480Z,1.25
2023-05-05T06:34:04.858Z,1.70
2023-05-05T06:34:36.305Z,1.63
2023-05-05T06:35:10.916Z,1.48
2023-05-05T06:35:42.399Z,1.80
2023-05-05T06:36:13.843Z,1.42
2023-05-05T06:36:45.265Z,1.23
2023-05-05T06:37:16.635Z,2.63
2023-05-05T06:37:48.040Z,1.70
2023-05-05T06:38:19.388Z,2.33
2023-05-05T06:38:50.764Z,1.20
2023-05-05T06:39:22.139Z,2.55
2023-05-05T06:39:53.485Z,1.27
2023-05-05T06:40:24.854Z,2.03
2023-05-05T06:40:56.229Z,2.50
2023-05-05T06:41:27.623Z,1.95
2023-05-05T06:41:58.983Z,1.27
2023-05-05T06:42:30.329Z,2.38
2023-05-05T06:43:01.699Z,1.20
2023-05-05T06:43:33.178Z,1.30
2023-05-05T06:44:04.787Z,2.97
2023-05-05T06:44:36.109Z,1.95
2023-05-05T06:45:07.800Z,1.60
2023-05-05T06:45:39.509Z,2.40
2023-05-05T06:46:11.069Z,1.77
2023-05-05T06:46:42.489Z,3.13
2023-05-05T06:47:13.897Z,2.00
2023-05-05T06:47:45.341Z,2.72
2023-05-05T06:48:16.734Z,2.85
2023-05-05T06:48:48.093Z,1.33
2023-05-05T06:49:19.501Z,1.53
2023-05-05T06:49:50.831Z,1.48
2023-05-05T06:50:22.213Z,2.28
2023-05-05T06:50:53.578Z,0.90
2023-05-05T06:51:24.994Z,2.38
2023-05-05T06:51:56.375Z,1.50
2023-05-05T06:52:27.746Z,2.00
2023-05-05T06:52:59.229Z,1.15
2023-05-05T06:53:30.612Z,1.45
2023-05-05T06:54:01.971Z,1.02
2023-05-05T06:54:33.299Z,1.40
2023-05-05T06:55:04.837Z,1.13
2023-05-05T06:55:36.424Z,2.25
2023-05-05T06:56:07.839Z,2.42
2023-05-05T06:56:39.240Z,1.85
2023-05-05T06:57:10.683Z,1.73
2023-05-05T06:57:42.020Z,2.30
2023-05-05T06:58:13.445Z,1.77
2023-05-05T06:58:44.830Z,1.42
2023-05-05T06:59:16.194Z,1.70
2023-05-05T06:59:47.564Z,1.48
2023-05-05T07:00:19.250Z,1.33
2023-05-05T07:00:50.804Z,1.73
2023-05-05T07:01:22.289Z,1.73
2023-05-05T07:01:53.728Z,1.37
2023-05-05T07:02:26.827Z,0.90
2023-05-05T07:02:58.427Z,3.15
2023-05-05T07:03:29.976Z,2.80
2023-05-05T07:04:01.431Z,1.70
2023-05-05T07:04:32.880Z,0.90
2023-05-05T07:05:04.529Z,1.13
2023-05-05T07:05:35.902Z,1.10
2023-05-05T07:06:07.295Z,1.25
2023-05-05T07:06:38.716Z,3.13
2023-05-05T07:07:10.065Z,1.45
2023-05-05T07:07:50.155Z,2.47
2023-05-05T07:08:21.598Z,2.88
2023-05-05T07:08:52.981Z,2.28
2023-05-05T07:09:24.463Z,1.45
2023-05-05T07:09:55.788Z,2.42
2023-05-05T07:10:27.549Z,1.63
2023-05-05T07:10:59.013Z,1.90
2023-05-05T07:11:30.460Z,1.38
2023-05-05T07:12:01.907Z,1.02
2023-05-05T07:12:33.372Z,1.30
2023-05-05T07:13:06.160Z,1.02
2023-05-05T07:13:37.663Z,1.27
2023-05-05T07:14:09.086Z,1.58